sensor_id;sensor_type;location;lat;lon;timestamp;temperature;humidity
22526;DHT22;11429;50.842;4.386;2022-07-18T00:01:51;22.80;88.60
22526;DHT22;11429;50.842;4.386;2022-07-18T00:04:17;22.90;88.60
22526;DHT22;11429;50.842;4.386;2022-07-18T00:06:42;22.70;89.00
22526;DHT22;11429;50.842;4.386;2022-07-18T00:09:08;22.70;88.90
22526;DHT22;11429;50.842;4.386;2022-07-18T00:11:34;22.70;88.90
22526;DHT22;11429;50.842;4.386;2022-07-18T00:13:59;22.80;88.80
22526;DHT22;11429;50.842;4.386;2022-07-18T00:16:25;22.80;88.60
22526;DHT22;11429;50.842;4.386;2022-07-18T00:18:51;22.70;88.90
22526;DHT22;11429;50.842;4.386;2022-07-18T00:21:17;22.60;89.30
22526;DHT22;11429;50.842;4.386;2022-07-18T00:23:43;22.60;89.30
22526;DHT22;11429;50.842;4.386;2022-07-18T00:26:08;22.50;89.70
22526;DHT22;11429;50.842;4.386;2022-07-18T00:28:34;22.50;89.70
22526;DHT22;11429;50.842;4.386;2022-07-18T00:31:00;22.50;89.80
22526;DHT22;11429;50.842;4.386;2022-07-18T00:33:25;22.50;90.00
22526;DHT22;11429;50.842;4.386;2022-07-18T00:35:51;22.50;89.90
22526;DHT22;11429;50.842;4.386;2022-07-18T00:38:17;22.50;90.00
22526;DHT22;11429;50.842;4.386;2022-07-18T00:40:43;22.40;90.00
22526;DHT22;11429;50.842;4.386;2022-07-18T00:43:13;22.30;90.20
22526;DHT22;11429;50.842;4.386;2022-07-18T00:45:43;22.30;90.20
22526;DHT22;11429;50.842;4.386;2022-07-18T00:48:09;22.30;90.30
22526;DHT22;11429;50.842;4.386;2022-07-18T00:50:34;22.10;90.70
22526;DHT22;11429;50.842;4.386;2022-07-18T00:53:00;22.00;91.00
22526;DHT22;11429;50.842;4.386;2022-07-18T00:55:26;21.70;91.20
22526;DHT22;11429;50.842;4.386;2022-07-18T00:57:52;21.60;91.20
22526;DHT22;11429;50.842;4.386;2022-07-18T01:00:18;21.80;90.90
22526;DHT22;11429;50.842;4.386;2022-07-18T01:03:03;21.80;90.80
22526;DHT22;11429;50.842;4.386;2022-07-18T01:05:29;21.80;90.90
22526;DHT22;11429;50.842;4.386;2022-07-18T01:07:55;21.50;91.30
22526;DHT22;11429;50.842;4.386;2022-07-18T01:10:21;21.50;91.30
22526;DHT22;11429;50.842;4.386;2022-07-18T01:12:47;21.40;91.30
22526;DHT22;11429;50.842;4.386;2022-07-18T01:15:13;21.40;91.30
22526;DHT22;11429;50.842;4.386;2022-07-18T01:17:38;21.30;91.40
22526;DHT22;11429;50.842;4.386;2022-07-18T01:20:05;21.20;91.50
22526;DHT22;11429;50.842;4.386;2022-07-18T01:22:31;21.40;91.50
22526;DHT22;11429;50.842;4.386;2022-07-18T01:24:57;21.50;92.00
22526;DHT22;11429;50.842;4.386;2022-07-18T01:27:23;21.40;91.90
22526;DHT22;11429;50.842;4.386;2022-07-18T01:29:50;21.40;92.20
22526;DHT22;11429;50.842;4.386;2022-07-18T01:32:18;21.60;91.90
22526;DHT22;11429;50.842;4.386;2022-07-18T01:34:48;21.50;91.90
22526;DHT22;11429;50.842;4.386;2022-07-18T01:37:14;21.30;92.20
22526;DHT22;11429;50.842;4.386;2022-07-18T01:39:44;21.30;91.70
22526;DHT22;11429;50.842;4.386;2022-07-18T01:42:11;21.30;91.60
22526;DHT22;11429;50.842;4.386;2022-07-18T01:44:37;21.30;91.90
22526;DHT22;11429;50.842;4.386;2022-07-18T01:47:06;21.10;91.80
22526;DHT22;11429;50.842;4.386;2022-07-18T01:49:32;21.20;91.80
22526;DHT22;11429;50.842;4.386;2022-07-18T01:51:59;21.10;92.30
22526;DHT22;11429;50.842;4.386;2022-07-18T01:54:26;21.10;92.40
22526;DHT22;11429;50.842;4.386;2022-07-18T01:56:53;21.20;92.60
22526;DHT22;11429;50.842;4.386;2022-07-18T01:59:19;21.10;92.60
22526;DHT22;11429;50.842;4.386;2022-07-18T02:01:45;21.10;92.60
22526;DHT22;11429;50.842;4.386;2022-07-18T02:04:11;21.00;92.50
22526;DHT22;11429;50.842;4.386;2022-07-18T02:06:37;20.60;94.20
22526;DHT22;11429;50.842;4.386;2022-07-18T02:09:04;20.70;93.10
22526;DHT22;11429;50.842;4.386;2022-07-18T02:11:30;20.70;92.90
22526;DHT22;11429;50.842;4.386;2022-07-18T02:13:56;20.70;93.80
22526;DHT22;11429;50.842;4.386;2022-07-18T02:16:22;20.50;94.00
22526;DHT22;11429;50.842;4.386;2022-07-18T02:18:48;20.60;94.20
22526;DHT22;11429;50.842;4.386;2022-07-18T02:21:13;20.70;93.80
22526;DHT22;11429;50.842;4.386;2022-07-18T02:23:40;20.90;93.80
22526;DHT22;11429;50.842;4.386;2022-07-18T02:26:06;20.50;94.50
22526;DHT22;11429;50.842;4.386;2022-07-18T02:28:32;20.30;94.60
22526;DHT22;11429;50.842;4.386;2022-07-18T02:30:57;20.10;94.60
22526;DHT22;11429;50.842;4.386;2022-07-18T02:33:23;19.90;94.80
22526;DHT22;11429;50.842;4.386;2022-07-18T02:35:49;19.90;95.00
22526;DHT22;11429;50.842;4.386;2022-07-18T02:38:15;20.00;94.70
22526;DHT22;11429;50.842;4.386;2022-07-18T02:40:40;19.90;95.00
22526;DHT22;11429;50.842;4.386;2022-07-18T02:43:06;19.90;94.50
22526;DHT22;11429;50.842;4.386;2022-07-18T02:45:32;19.70;94.70
22526;DHT22;11429;50.842;4.386;2022-07-18T02:47:57;19.70;95.20
22526;DHT22;11429;50.842;4.386;2022-07-18T02:50:23;19.60;95.10
22526;DHT22;11429;50.842;4.386;2022-07-18T02:52:49;19.60;95.30
22526;DHT22;11429;50.842;4.386;2022-07-18T02:55:15;19.60;95.20
22526;DHT22;11429;50.842;4.386;2022-07-18T02:57:42;19.50;95.40
22526;DHT22;11429;50.842;4.386;2022-07-18T03:00:10;19.40;95.50
22526;DHT22;11429;50.842;4.386;2022-07-18T03:02:37;19.50;95.40
22526;DHT22;11429;50.842;4.386;2022-07-18T03:05:04;19.60;95.40
22526;DHT22;11429;50.842;4.386;2022-07-18T03:07:30;19.70;95.30
22526;DHT22;11429;50.842;4.386;2022-07-18T03:09:56;19.70;95.30
22526;DHT22;11429;50.842;4.386;2022-07-18T03:12:22;19.70;95.40
22526;DHT22;11429;50.842;4.386;2022-07-18T03:14:48;19.60;95.50
22526;DHT22;11429;50.842;4.386;2022-07-18T03:17:13;19.60;95.50
22526;DHT22;11429;50.842;4.386;2022-07-18T03:19:39;19.50;95.80
22526;DHT22;11429;50.842;4.386;2022-07-18T03:22:05;19.60;95.60
22526;DHT22;11429;50.842;4.386;2022-07-18T03:24:31;19.60;95.80
22526;DHT22;11429;50.842;4.386;2022-07-18T03:26:57;19.60;95.90
22526;DHT22;11429;50.842;4.386;2022-07-18T03:29:23;19.60;95.60
22526;DHT22;11429;50.842;4.386;2022-07-18T03:31:49;19.60;95.50
22526;DHT22;11429;50.842;4.386;2022-07-18T03:34:15;19.60;96.30
22526;DHT22;11429;50.842;4.386;2022-07-18T03:36:41;19.60;96.30
22526;DHT22;11429;50.842;4.386;2022-07-18T03:39:08;19.60;96.10
22526;DHT22;11429;50.842;4.386;2022-07-18T03:41:36;19.60;95.80
22526;DHT22;11429;50.842;4.386;2022-07-18T03:44:02;19.60;96.30
22526;DHT22;11429;50.842;4.386;2022-07-18T03:46:29;19.60;96.00
22526;DHT22;11429;50.842;4.386;2022-07-18T03:48:54;19.60;96.50
22526;DHT22;11429;50.842;4.386;2022-07-18T03:51:20;19.50;96.30
22526;DHT22;11429;50.842;4.386;2022-07-18T03:53:46;19.50;96.40
22526;DHT22;11429;50.842;4.386;2022-07-18T03:56:11;19.40;96.80
22526;DHT22;11429;50.842;4.386;2022-07-18T03:58:37;19.40;96.60
22526;DHT22;11429;50.842;4.386;2022-07-18T04:01:03;19.40;97.30
22526;DHT22;11429;50.842;4.386;2022-07-18T04:03:29;19.40;97.00
22526;DHT22;11429;50.842;4.386;2022-07-18T04:05:55;19.30;97.40
22526;DHT22;11429;50.842;4.386;2022-07-18T04:08:21;19.40;97.30
22526;DHT22;11429;50.842;4.386;2022-07-18T04:10:47;19.60;96.90
22526;DHT22;11429;50.842;4.386;2022-07-18T04:13:12;19.60;96.80
22526;DHT22;11429;50.842;4.386;2022-07-18T04:15:38;19.40;97.20
22526;DHT22;11429;50.842;4.386;2022-07-18T04:18:05;19.20;97.50
22526;DHT22;11429;50.842;4.386;2022-07-18T04:20:31;19.30;97.60
22526;DHT22;11429;50.842;4.386;2022-07-18T04:23:00;19.40;97.40
22526;DHT22;11429;50.842;4.386;2022-07-18T04:25:28;19.40;97.70
22526;DHT22;11429;50.842;4.386;2022-07-18T04:27:55;19.40;97.20
22526;DHT22;11429;50.842;4.386;2022-07-18T04:30:23;19.40;97.60
22526;DHT22;11429;50.842;4.386;2022-07-18T04:32:49;19.30;97.80
22526;DHT22;11429;50.842;4.386;2022-07-18T04:35:15;19.20;98.20
22526;DHT22;11429;50.842;4.386;2022-07-18T04:37:41;19.30;98.10
22526;DHT22;11429;50.842;4.386;2022-07-18T04:40:08;19.50;98.00
22526;DHT22;11429;50.842;4.386;2022-07-18T04:42:35;19.60;97.60
22526;DHT22;11429;50.842;4.386;2022-07-18T04:45:01;19.60;97.20
22526;DHT22;11429;50.842;4.386;2022-07-18T04:47:27;19.50;97.70
22526;DHT22;11429;50.842;4.386;2022-07-18T04:49:54;19.70;97.40
22526;DHT22;11429;50.842;4.386;2022-07-18T04:52:20;19.60;97.40
22526;DHT22;11429;50.842;4.386;2022-07-18T04:54:45;19.80;97.00
22526;DHT22;11429;50.842;4.386;2022-07-18T04:57:11;19.90;97.00
22526;DHT22;11429;50.842;4.386;2022-07-18T04:59:40;19.90;97.00
22526;DHT22;11429;50.842;4.386;2022-07-18T05:02:07;19.90;97.10
22526;DHT22;11429;50.842;4.386;2022-07-18T05:04:32;20.00;96.90
22526;DHT22;11429;50.842;4.386;2022-07-18T05:06:58;20.10;96.70
22526;DHT22;11429;50.842;4.386;2022-07-18T05:09:24;20.20;96.50
22526;DHT22;11429;50.842;4.386;2022-07-18T05:11:49;20.20;96.60
22526;DHT22;11429;50.842;4.386;2022-07-18T05:14:15;20.80;96.30
22526;DHT22;11429;50.842;4.386;2022-07-18T05:16:41;21.70;94.80
22526;DHT22;11429;50.842;4.386;2022-07-18T05:19:06;23.00;93.20
22526;DHT22;11429;50.842;4.386;2022-07-18T05:21:32;23.70;91.80
22526;DHT22;11429;50.842;4.386;2022-07-18T05:23:58;24.40;90.90
22526;DHT22;11429;50.842;4.386;2022-07-18T05:26:23;24.60;90.50
22526;DHT22;11429;50.842;4.386;2022-07-18T05:28:50;25.40;88.70
22526;DHT22;11429;50.842;4.386;2022-07-18T05:31:16;25.60;87.90
22526;DHT22;11429;50.842;4.386;2022-07-18T05:33:41;25.50;87.90
22526;DHT22;11429;50.842;4.386;2022-07-18T05:36:08;25.60;88.40
22526;DHT22;11429;50.842;4.386;2022-07-18T05:38:34;25.70;87.70
22526;DHT22;11429;50.842;4.386;2022-07-18T05:40:59;26.30;86.70
22526;DHT22;11429;50.842;4.386;2022-07-18T05:43:25;26.20;86.40
22526;DHT22;11429;50.842;4.386;2022-07-18T05:45:51;26.10;86.40
22526;DHT22;11429;50.842;4.386;2022-07-18T05:48:16;27.30;85.00
22526;DHT22;11429;50.842;4.386;2022-07-18T05:50:42;28.30;81.60
22526;DHT22;11429;50.842;4.386;2022-07-18T05:53:08;28.60;81.30
22526;DHT22;11429;50.842;4.386;2022-07-18T05:55:33;27.70;82.40
22526;DHT22;11429;50.842;4.386;2022-07-18T05:57:59;27.60;82.90
22526;DHT22;11429;50.842;4.386;2022-07-18T06:00:25;28.40;81.80
22526;DHT22;11429;50.842;4.386;2022-07-18T06:02:50;28.30;82.00
22526;DHT22;11429;50.842;4.386;2022-07-18T06:05:16;28.80;81.70
22526;DHT22;11429;50.842;4.386;2022-07-18T06:07:42;28.80;81.10
22526;DHT22;11429;50.842;4.386;2022-07-18T06:10:08;29.60;80.00
22526;DHT22;11429;50.842;4.386;2022-07-18T06:12:34;30.60;76.90
22526;DHT22;11429;50.842;4.386;2022-07-18T06:15:00;31.70;75.10
22526;DHT22;11429;50.842;4.386;2022-07-18T06:17:26;30.50;75.90
22526;DHT22;11429;50.842;4.386;2022-07-18T06:19:55;30.00;75.80
22526;DHT22;11429;50.842;4.386;2022-07-18T06:22:22;31.00;75.10
22526;DHT22;11429;50.842;4.386;2022-07-18T06:24:48;31.80;73.40
22526;DHT22;11429;50.842;4.386;2022-07-18T06:27:14;32.50;72.40
22526;DHT22;11429;50.842;4.386;2022-07-18T06:29:40;31.90;72.10
22526;DHT22;11429;50.842;4.386;2022-07-18T06:32:06;32.20;71.10
22526;DHT22;11429;50.842;4.386;2022-07-18T06:34:31;31.70;70.80
22526;DHT22;11429;50.842;4.386;2022-07-18T06:36:57;31.60;71.10
22526;DHT22;11429;50.842;4.386;2022-07-18T06:39:23;31.80;70.60
22526;DHT22;11429;50.842;4.386;2022-07-18T06:41:49;32.50;70.60
22526;DHT22;11429;50.842;4.386;2022-07-18T06:44:14;33.10;70.70
22526;DHT22;11429;50.842;4.386;2022-07-18T06:46:40;33.10;70.50
22526;DHT22;11429;50.842;4.386;2022-07-18T06:49:06;34.20;68.60
22526;DHT22;11429;50.842;4.386;2022-07-18T06:51:33;34.10;67.60
22526;DHT22;11429;50.842;4.386;2022-07-18T06:53:58;35.10;67.90
22526;DHT22;11429;50.842;4.386;2022-07-18T06:56:24;35.70;64.50
22526;DHT22;11429;50.842;4.386;2022-07-18T06:58:51;34.40;66.90
22526;DHT22;11429;50.842;4.386;2022-07-18T07:01:18;33.60;66.90
22526;DHT22;11429;50.842;4.386;2022-07-18T07:03:44;34.60;67.50
22526;DHT22;11429;50.842;4.386;2022-07-18T07:06:09;34.00;65.40
22526;DHT22;11429;50.842;4.386;2022-07-18T07:08:35;33.50;66.80
22526;DHT22;11429;50.842;4.386;2022-07-18T07:11:01;33.70;66.00
22526;DHT22;11429;50.842;4.386;2022-07-18T07:13:27;33.90;66.00
22526;DHT22;11429;50.842;4.386;2022-07-18T07:15:53;33.50;66.50
22526;DHT22;11429;50.842;4.386;2022-07-18T07:18:19;34.40;65.80
22526;DHT22;11429;50.842;4.386;2022-07-18T07:20:46;34.80;65.20
22526;DHT22;11429;50.842;4.386;2022-07-18T07:23:12;36.20;62.60
22526;DHT22;11429;50.842;4.386;2022-07-18T07:25:38;36.80;62.10
22526;DHT22;11429;50.842;4.386;2022-07-18T07:28:05;36.90;62.90
22526;DHT22;11429;50.842;4.386;2022-07-18T07:30:32;36.80;61.80
22526;DHT22;11429;50.842;4.386;2022-07-18T07:32:58;37.00;62.60
22526;DHT22;11429;50.842;4.386;2022-07-18T07:35:24;36.70;61.10
22526;DHT22;11429;50.842;4.386;2022-07-18T07:37:55;36.80;61.00
22526;DHT22;11429;50.842;4.386;2022-07-18T07:40:23;36.20;62.40
22526;DHT22;11429;50.842;4.386;2022-07-18T07:42:50;37.00;61.20
22526;DHT22;11429;50.842;4.386;2022-07-18T07:45:16;35.80;62.40
22526;DHT22;11429;50.842;4.386;2022-07-18T07:47:43;36.70;61.10
22526;DHT22;11429;50.842;4.386;2022-07-18T07:50:10;36.90;60.60
22526;DHT22;11429;50.842;4.386;2022-07-18T07:52:36;38.10;59.80
22526;DHT22;11429;50.842;4.386;2022-07-18T07:55:03;37.60;59.10
22526;DHT22;11429;50.842;4.386;2022-07-18T07:57:28;36.30;60.80
22526;DHT22;11429;50.842;4.386;2022-07-18T07:59:54;37.00;60.80
22526;DHT22;11429;50.842;4.386;2022-07-18T08:02:21;37.00;59.80
22526;DHT22;11429;50.842;4.386;2022-07-18T08:04:46;37.80;59.30
22526;DHT22;11429;50.842;4.386;2022-07-18T08:07:12;36.80;59.60
22526;DHT22;11429;50.842;4.386;2022-07-18T08:09:38;36.30;60.70
22526;DHT22;11429;50.842;4.386;2022-07-18T08:12:05;36.80;60.50
22526;DHT22;11429;50.842;4.386;2022-07-18T08:14:31;35.80;61.20
22526;DHT22;11429;50.842;4.386;2022-07-18T08:16:59;36.00;61.30
22526;DHT22;11429;50.842;4.386;2022-07-18T08:19:24;35.20;62.50
22526;DHT22;11429;50.842;4.386;2022-07-18T08:21:50;34.30;63.60
22526;DHT22;11429;50.842;4.386;2022-07-18T08:24:15;33.30;65.70
22526;DHT22;11429;50.842;4.386;2022-07-18T08:26:41;33.80;65.30
22526;DHT22;11429;50.842;4.386;2022-07-18T08:29:07;34.60;64.20
22526;DHT22;11429;50.842;4.386;2022-07-18T08:31:33;33.40;65.50
22526;DHT22;11429;50.842;4.386;2022-07-18T08:34:00;33.90;65.70
22526;DHT22;11429;50.842;4.386;2022-07-18T08:36:25;34.20;64.90
22526;DHT22;11429;50.842;4.386;2022-07-18T08:38:52;34.20;64.70
22526;DHT22;11429;50.842;4.386;2022-07-18T08:41:18;34.90;64.80
22526;DHT22;11429;50.842;4.386;2022-07-18T08:43:48;34.00;64.40
22526;DHT22;11429;50.842;4.386;2022-07-18T08:46:18;33.10;66.20
22526;DHT22;11429;50.842;4.386;2022-07-18T08:48:44;33.40;67.40
22526;DHT22;11429;50.842;4.386;2022-07-18T08:51:11;33.00;67.10
22526;DHT22;11429;50.842;4.386;2022-07-18T08:53:37;33.10;66.20
22526;DHT22;11429;50.842;4.386;2022-07-18T08:56:04;33.70;64.50
22526;DHT22;11429;50.842;4.386;2022-07-18T08:58:30;33.70;64.80
22526;DHT22;11429;50.842;4.386;2022-07-18T09:00:56;35.50;63.00
22526;DHT22;11429;50.842;4.386;2022-07-18T09:03:24;36.60;62.50
22526;DHT22;11429;50.842;4.386;2022-07-18T09:06:22;37.20;60.00
22526;DHT22;11429;50.842;4.386;2022-07-18T09:09:08;39.10;58.50
22526;DHT22;11429;50.842;4.386;2022-07-18T09:11:36;40.10;57.60
22526;DHT22;11429;50.842;4.386;2022-07-18T09:14:01;39.40;56.60
22526;DHT22;11429;50.842;4.386;2022-07-18T09:16:27;38.70;57.50
22526;DHT22;11429;50.842;4.386;2022-07-18T09:18:53;39.10;57.90
22526;DHT22;11429;50.842;4.386;2022-07-18T09:21:21;40.10;56.80
22526;DHT22;11429;50.842;4.386;2022-07-18T09:23:52;40.40;56.20
22526;DHT22;11429;50.842;4.386;2022-07-18T09:26:40;40.70;56.00
22526;DHT22;11429;50.842;4.386;2022-07-18T09:29:06;39.30;56.70
22526;DHT22;11429;50.842;4.386;2022-07-18T09:31:32;39.10;56.80
22526;DHT22;11429;50.842;4.386;2022-07-18T09:34:03;39.80;55.80
22526;DHT22;11429;50.842;4.386;2022-07-18T09:36:29;37.60;58.50
22526;DHT22;11429;50.842;4.386;2022-07-18T09:38:59;38.00;57.60
22526;DHT22;11429;50.842;4.386;2022-07-18T09:41:26;37.80;56.90
22526;DHT22;11429;50.842;4.386;2022-07-18T09:43:53;38.30;56.50
22526;DHT22;11429;50.842;4.386;2022-07-18T09:46:19;39.20;56.50
22526;DHT22;11429;50.842;4.386;2022-07-18T09:48:45;40.60;55.00
22526;DHT22;11429;50.842;4.386;2022-07-18T09:51:11;40.90;53.90
22526;DHT22;11429;50.842;4.386;2022-07-18T09:53:41;39.30;54.80
22526;DHT22;11429;50.842;4.386;2022-07-18T09:56:12;39.00;55.90
22526;DHT22;11429;50.842;4.386;2022-07-18T09:58:55;41.00;54.70
22526;DHT22;11429;50.842;4.386;2022-07-18T10:01:21;40.00;55.20
22526;DHT22;11429;50.842;4.386;2022-07-18T10:03:47;39.50;54.80
22526;DHT22;11429;50.842;4.386;2022-07-18T10:06:17;39.20;55.10
22526;DHT22;11429;50.842;4.386;2022-07-18T10:08:44;38.90;54.00
22526;DHT22;11429;50.842;4.386;2022-07-18T10:11:09;38.30;55.30
22526;DHT22;11429;50.842;4.386;2022-07-18T10:13:37;38.70;56.10
22526;DHT22;11429;50.842;4.386;2022-07-18T10:16:03;38.70;55.20
22526;DHT22;11429;50.842;4.386;2022-07-18T10:18:31;39.30;55.20
22526;DHT22;11429;50.842;4.386;2022-07-18T10:21:08;39.80;53.30
22526;DHT22;11429;50.842;4.386;2022-07-18T10:31:28;39.90;52.50
22526;DHT22;11429;50.842;4.386;2022-07-18T10:37:23;37.60;53.90
22526;DHT22;11429;50.842;4.386;2022-07-18T10:39:38;39.00;53.70
22526;DHT22;11429;50.842;4.386;2022-07-18T10:44:35;39.60;53.70
22526;DHT22;11429;50.842;4.386;2022-07-18T10:47:05;37.80;53.40
22526;DHT22;11429;50.842;4.386;2022-07-18T10:57:41;37.70;54.50
22526;DHT22;11429;50.842;4.386;2022-07-18T11:00:12;37.00;55.80
22526;DHT22;11429;50.842;4.386;2022-07-18T11:02:41;36.90;55.00
22526;DHT22;11429;50.842;4.386;2022-07-18T11:05:41;38.00;54.60
22526;DHT22;11429;50.842;4.386;2022-07-18T11:21:23;39.30;53.60
22526;DHT22;11429;50.842;4.386;2022-07-18T11:23:58;39.60;53.60
22526;DHT22;11429;50.842;4.386;2022-07-18T11:26:25;39.20;53.30
22526;DHT22;11429;50.842;4.386;2022-07-18T11:31:44;40.10;52.00
22526;DHT22;11429;50.842;4.386;2022-07-18T11:34:10;41.00;51.30
22526;DHT22;11429;50.842;4.386;2022-07-18T11:36:39;40.20;51.40
22526;DHT22;11429;50.842;4.386;2022-07-18T11:39:06;37.30;52.50
22526;DHT22;11429;50.842;4.386;2022-07-18T11:41:32;36.20;54.20
22526;DHT22;11429;50.842;4.386;2022-07-18T11:44:01;36.00;56.00
22526;DHT22;11429;50.842;4.386;2022-07-18T11:46:27;36.90;54.00
22526;DHT22;11429;50.842;4.386;2022-07-18T11:49:04;38.10;52.70
22526;DHT22;11429;50.842;4.386;2022-07-18T11:51:41;38.10;51.40
22526;DHT22;11429;50.842;4.386;2022-07-18T11:54:08;37.70;51.40
22526;DHT22;11429;50.842;4.386;2022-07-18T11:56:48;37.90;51.90
22526;DHT22;11429;50.842;4.386;2022-07-18T11:59:15;38.50;52.30
22526;DHT22;11429;50.842;4.386;2022-07-18T12:01:41;38.20;52.70
22526;DHT22;11429;50.842;4.386;2022-07-18T12:04:18;37.20;52.80
22526;DHT22;11429;50.842;4.386;2022-07-18T12:06:46;36.70;53.20
22526;DHT22;11429;50.842;4.386;2022-07-18T12:09:12;36.50;53.00
22526;DHT22;11429;50.842;4.386;2022-07-18T12:11:51;36.60;54.10
22526;DHT22;11429;50.842;4.386;2022-07-18T12:14:17;36.90;53.60
22526;DHT22;11429;50.842;4.386;2022-07-18T12:16:43;36.10;52.80
22526;DHT22;11429;50.842;4.386;2022-07-18T12:22:04;36.90;53.10
22526;DHT22;11429;50.842;4.386;2022-07-18T12:24:52;37.30;53.20
22526;DHT22;11429;50.842;4.386;2022-07-18T12:27:34;36.60;53.10
22526;DHT22;11429;50.842;4.386;2022-07-18T12:30:18;36.20;52.30
22526;DHT22;11429;50.842;4.386;2022-07-18T12:40:21;37.00;53.20
22526;DHT22;11429;50.842;4.386;2022-07-18T12:42:47;36.90;53.10
22526;DHT22;11429;50.842;4.386;2022-07-18T12:45:15;36.30;53.50
22526;DHT22;11429;50.842;4.386;2022-07-18T12:47:41;36.50;54.50
22526;DHT22;11429;50.842;4.386;2022-07-18T12:50:07;35.90;55.30
22526;DHT22;11429;50.842;4.386;2022-07-18T12:52:34;36.10;56.50
22526;DHT22;11429;50.842;4.386;2022-07-18T12:54:59;36.30;54.50
22526;DHT22;11429;50.842;4.386;2022-07-18T12:57:26;36.30;54.20
22526;DHT22;11429;50.842;4.386;2022-07-18T12:59:52;36.00;55.40
22526;DHT22;11429;50.842;4.386;2022-07-18T13:02:18;35.60;55.40
22526;DHT22;11429;50.842;4.386;2022-07-18T13:04:45;35.30;53.80
22526;DHT22;11429;50.842;4.386;2022-07-18T13:07:11;35.40;53.30
22526;DHT22;11429;50.842;4.386;2022-07-18T13:09:37;35.50;54.60
22526;DHT22;11429;50.842;4.386;2022-07-18T13:12:04;35.30;53.40
22526;DHT22;11429;50.842;4.386;2022-07-18T13:14:31;35.30;53.90
22526;DHT22;11429;50.842;4.386;2022-07-18T13:16:57;35.30;52.80
22526;DHT22;11429;50.842;4.386;2022-07-18T13:19:23;35.60;53.50
22526;DHT22;11429;50.842;4.386;2022-07-18T13:21:49;35.50;53.30
22526;DHT22;11429;50.842;4.386;2022-07-18T13:24:15;35.00;53.20
22526;DHT22;11429;50.842;4.386;2022-07-18T13:26:42;35.30;52.60
22526;DHT22;11429;50.842;4.386;2022-07-18T13:29:08;35.60;53.70
22526;DHT22;11429;50.842;4.386;2022-07-18T13:31:34;35.10;54.80
22526;DHT22;11429;50.842;4.386;2022-07-18T13:34:02;34.90;56.00
22526;DHT22;11429;50.842;4.386;2022-07-18T13:36:28;35.10;53.40
22526;DHT22;11429;50.842;4.386;2022-07-18T13:38:54;35.60;53.20
22526;DHT22;11429;50.842;4.386;2022-07-18T13:41:21;35.60;53.30
22526;DHT22;11429;50.842;4.386;2022-07-18T13:43:47;35.40;54.00
22526;DHT22;11429;50.842;4.386;2022-07-18T13:46:12;35.20;54.00
22526;DHT22;11429;50.842;4.386;2022-07-18T13:48:38;35.00;55.20
22526;DHT22;11429;50.842;4.386;2022-07-18T13:51:05;35.30;55.20
22526;DHT22;11429;50.842;4.386;2022-07-18T13:53:32;35.40;54.00
22526;DHT22;11429;50.842;4.386;2022-07-18T13:55:58;35.20;54.10
22526;DHT22;11429;50.842;4.386;2022-07-18T13:58:23;34.80;54.90
22526;DHT22;11429;50.842;4.386;2022-07-18T14:00:49;34.80;54.80
22526;DHT22;11429;50.842;4.386;2022-07-18T14:03:16;34.80;55.80
22526;DHT22;11429;50.842;4.386;2022-07-18T14:05:42;35.00;55.90
22526;DHT22;11429;50.842;4.386;2022-07-18T14:08:08;35.10;56.10
22526;DHT22;11429;50.842;4.386;2022-07-18T14:10:34;35.20;53.70
22526;DHT22;11429;50.842;4.386;2022-07-18T14:13:00;35.30;54.60
22526;DHT22;11429;50.842;4.386;2022-07-18T14:15:27;34.90;54.20
22526;DHT22;11429;50.842;4.386;2022-07-18T14:17:54;34.90;55.00
22526;DHT22;11429;50.842;4.386;2022-07-18T14:20:20;34.80;56.10
22526;DHT22;11429;50.842;4.386;2022-07-18T14:22:49;34.90;56.60
22526;DHT22;11429;50.842;4.386;2022-07-18T14:25:17;35.10;56.60
22526;DHT22;11429;50.842;4.386;2022-07-18T14:27:43;35.20;56.10
22526;DHT22;11429;50.842;4.386;2022-07-18T14:30:12;35.10;56.60
22526;DHT22;11429;50.842;4.386;2022-07-18T14:32:38;35.00;55.80
22526;DHT22;11429;50.842;4.386;2022-07-18T14:35:05;35.20;56.30
22526;DHT22;11429;50.842;4.386;2022-07-18T14:37:31;35.40;55.90
22526;DHT22;11429;50.842;4.386;2022-07-18T14:39:58;35.50;54.70
22526;DHT22;11429;50.842;4.386;2022-07-18T14:42:24;35.90;54.40
22526;DHT22;11429;50.842;4.386;2022-07-18T14:44:51;35.70;53.70
22526;DHT22;11429;50.842;4.386;2022-07-18T14:47:17;35.40;55.50
22526;DHT22;11429;50.842;4.386;2022-07-18T14:49:42;35.10;55.70
22526;DHT22;11429;50.842;4.386;2022-07-18T14:52:08;35.10;56.70
22526;DHT22;11429;50.842;4.386;2022-07-18T14:54:34;35.20;57.20
22526;DHT22;11429;50.842;4.386;2022-07-18T14:57:00;35.10;56.50
22526;DHT22;11429;50.842;4.386;2022-07-18T14:59:31;35.30;54.60
22526;DHT22;11429;50.842;4.386;2022-07-18T15:01:57;35.70;54.50
22526;DHT22;11429;50.842;4.386;2022-07-18T15:04:26;35.70;54.50
22526;DHT22;11429;50.842;4.386;2022-07-18T15:06:51;35.20;54.50
22526;DHT22;11429;50.842;4.386;2022-07-18T15:09:17;35.10;57.10
22526;DHT22;11429;50.842;4.386;2022-07-18T15:11:44;34.70;56.80
22526;DHT22;11429;50.842;4.386;2022-07-18T15:14:10;34.70;55.40
22526;DHT22;11429;50.842;4.386;2022-07-18T15:16:36;34.50;55.90
22526;DHT22;11429;50.842;4.386;2022-07-18T15:19:02;34.50;55.60
22526;DHT22;11429;50.842;4.386;2022-07-18T15:21:28;34.30;56.30
22526;DHT22;11429;50.842;4.386;2022-07-18T15:23:53;34.40;56.20
22526;DHT22;11429;50.842;4.386;2022-07-18T15:26:19;34.60;56.30
22526;DHT22;11429;50.842;4.386;2022-07-18T15:28:45;35.00;54.90
22526;DHT22;11429;50.842;4.386;2022-07-18T15:31:11;35.30;54.80
22526;DHT22;11429;50.842;4.386;2022-07-18T15:33:37;35.10;55.40
22526;DHT22;11429;50.842;4.386;2022-07-18T15:36:02;34.80;55.00
22526;DHT22;11429;50.842;4.386;2022-07-18T15:38:28;34.70;55.50
22526;DHT22;11429;50.842;4.386;2022-07-18T15:40:54;34.80;55.50
22526;DHT22;11429;50.842;4.386;2022-07-18T15:43:20;34.60;56.30
22526;DHT22;11429;50.842;4.386;2022-07-18T15:45:46;34.20;55.80
22526;DHT22;11429;50.842;4.386;2022-07-18T15:48:11;34.10;56.00
22526;DHT22;11429;50.842;4.386;2022-07-18T15:50:37;34.40;55.70
22526;DHT22;11429;50.842;4.386;2022-07-18T15:53:03;34.90;54.30
22526;DHT22;11429;50.842;4.386;2022-07-18T15:55:29;35.00;54.60
22526;DHT22;11429;50.842;4.386;2022-07-18T15:57:59;35.20;54.50
22526;DHT22;11429;50.842;4.386;2022-07-18T16:00:26;35.00;55.30
22526;DHT22;11429;50.842;4.386;2022-07-18T16:02:52;34.60;56.60
22526;DHT22;11429;50.842;4.386;2022-07-18T16:05:18;34.50;56.20
22526;DHT22;11429;50.842;4.386;2022-07-18T16:07:44;34.20;56.00
22526;DHT22;11429;50.842;4.386;2022-07-18T16:10:10;33.90;56.30
22526;DHT22;11429;50.842;4.386;2022-07-18T16:12:36;33.80;56.30
22526;DHT22;11429;50.842;4.386;2022-07-18T16:15:04;33.90;56.40
22526;DHT22;11429;50.842;4.386;2022-07-18T16:17:29;34.30;56.20